createdAt,value
2022-11-16T00:00:20.621Z,158
2022-11-16T00:01:20.640Z,158
2022-11-16T00:02:20.657Z,158
2022-11-16T00:03:20.663Z,158
2022-11-16T00:04:20.651Z,158
2022-11-16T00:05:24.286Z,158
2022-11-16T00:06:20.648Z,158
2022-11-16T00:07:20.728Z,158
2022-11-16T00:08:20.650Z,158
2022-11-16T00:09:20.661Z,158
2022-11-16T00:10:20.668Z,158
2022-11-16T00:11:20.669Z,158
2022-11-16T00:12:20.676Z,158
2022-11-16T00:13:20.687Z,158
2022-11-16T00:14:20.702Z,158
2022-11-16T00:15:20.678Z,158
2022-11-16T00:16:20.697Z,158
2022-11-16T00:17:20.681Z,158
2022-11-16T00:18:20.686Z,158
2022-11-16T00:19:20.718Z,158
2022-11-16T00:20:20.683Z,158
2022-11-16T00:21:20.693Z,158
2022-11-16T00:22:20.705Z,158
2022-11-16T00:23:20.726Z,158
2022-11-16T00:24:20.717Z,158
2022-11-16T00:25:20.800Z,158
2022-11-16T00:26:20.718Z,158
2022-11-16T00:27:20.755Z,158
2022-11-16T00:28:20.747Z,158
2022-11-16T00:29:20.768Z,158
2022-11-16T00:30:20.740Z,158
2022-11-16T00:31:20.751Z,158
2022-11-16T00:32:20.745Z,158
2022-11-16T00:33:20.773Z,158
2022-11-16T00:34:20.758Z,158
2022-11-16T00:35:20.784Z,158
2022-11-16T00:36:20.770Z,158
2022-11-16T00:37:20.780Z,158
2022-11-16T00:38:20.778Z,158
2022-11-16T00:39:20.807Z,158
2022-11-16T00:40:20.814Z,158
2022-11-16T00:41:20.788Z,158
2022-11-16T00:42:20.782Z,158
2022-11-16T00:43:20.797Z,112
2022-11-16T00:44:20.836Z,68
2022-11-16T00:45:20.787Z,68
2022-11-16T00:46:20.820Z,68
2022-11-16T00:47:20.814Z,68
2022-11-16T00:48:20.836Z,68
2022-11-16T00:49:20.840Z,68
2022-11-16T00:50:20.811Z,68
2022-11-16T00:51:20.821Z,68
2022-11-16T00:52:20.829Z,68
2022-11-16T00:53:20.841Z,68
2022-11-16T00:54:20.850Z,68
2022-11-16T00:55:20.865Z,68
2022-11-16T00:56:20.855Z,68
2022-11-16T00:57:20.862Z,68
2022-11-16T00:58:20.871Z,90
2022-11-16T00:59:20.875Z,180
2022-11-16T01:00:20.851Z,180
2022-11-16T01:01:20.888Z,180
2022-11-16T01:02:20.866Z,180
2022-11-16T01:03:20.856Z,135
2022-11-16T01:04:20.869Z,135
2022-11-16T01:05:20.853Z,135
2022-11-16T01:06:20.937Z,135
2022-11-16T01:07:20.857Z,135
2022-11-16T01:08:20.861Z,135
2022-11-16T01:09:20.887Z,135
2022-11-16T01:10:20.855Z,135
2022-11-16T01:11:20.888Z,135
2022-11-16T01:12:20.869Z,135
2022-11-16T01:13:20.865Z,135
2022-11-16T01:14:20.895Z,135
2022-11-16T01:15:20.882Z,135
2022-11-16T01:16:20.880Z,135
2022-11-16T01:17:20.896Z,135
2022-11-16T01:18:20.891Z,135
2022-11-16T01:19:20.906Z,135
2022-11-16T01:20:20.898Z,135
2022-11-16T01:21:20.886Z,135
2022-11-16T01:22:20.885Z,135
2022-11-16T01:23:20.895Z,135
2022-11-16T01:24:20.921Z,135
2022-11-16T01:25:20.902Z,135
2022-11-16T01:26:20.950Z,135
2022-11-16T01:27:21.087Z,135
2022-11-16T01:28:20.902Z,135
2022-11-16T01:29:20.928Z,135
2022-11-16T01:30:20.916Z,135
2022-11-16T01:31:20.916Z,135
2022-11-16T01:32:20.938Z,135
2022-11-16T01:33:20.952Z,135
2022-11-16T01:34:20.938Z,135
2022-11-16T01:35:20.941Z,135
2022-11-16T01:36:20.952Z,135
2022-11-16T01:37:20.942Z,135
2022-11-16T01:38:21.805Z,135
2022-11-16T01:39:20.950Z,135
2022-11-16T01:40:20.952Z,135
2022-11-16T01:41:20.950Z,135
2022-11-16T01:42:20.953Z,135
2022-11-16T01:43:20.978Z,135
2022-11-16T01:44:20.980Z,135
2022-11-16T01:45:20.956Z,135
2022-11-16T01:46:20.993Z,135
2022-11-16T01:47:20.960Z,135
2022-11-16T01:48:21.051Z,135
2022-11-16T01:49:20.997Z,135
2022-11-16T01:50:20.969Z,135
2022-11-16T01:51:21.011Z,135
2022-11-16T01:52:20.971Z,135
2022-11-16T01:53:20.977Z,135
2022-11-16T01:54:21.011Z,135
2022-11-16T01:55:21.005Z,135
2022-11-16T01:56:20.992Z,135
2022-11-16T01:57:20.984Z,135
2022-11-16T01:58:20.987Z,135
2022-11-16T01:59:21.039Z,135
2022-11-16T02:00:20.992Z,135
2022-11-16T02:01:21.102Z,135
2022-11-16T02:02:21.022Z,135
2022-11-16T02:03:21.029Z,135
2022-11-16T02:04:21.040Z,135
2022-11-16T02:05:21.045Z,135
2022-11-16T02:06:21.031Z,135
2022-11-16T02:07:21.170Z,135
2022-11-16T02:08:21.033Z,135
2022-11-16T02:09:21.032Z,135
2022-11-16T02:10:21.021Z,135
2022-11-16T02:11:21.020Z,135
2022-11-16T02:12:21.037Z,135
2022-11-16T02:13:21.029Z,135
2022-11-16T02:14:21.062Z,135
2022-11-16T02:15:21.058Z,135
2022-11-16T02:16:21.051Z,135
2022-11-16T02:17:21.062Z,135
2022-11-16T02:18:21.056Z,135
2022-11-16T02:19:21.071Z,135
2022-11-16T02:20:21.067Z,135
2022-11-16T02:21:21.065Z,135
2022-11-16T02:22:21.071Z,135
2022-11-16T02:23:21.059Z,135
2022-11-16T02:24:21.098Z,135
2022-11-16T02:25:21.075Z,135
2022-11-16T02:26:21.073Z,135
2022-11-16T02:27:21.067Z,135
2022-11-16T02:28:21.097Z,135
2022-11-16T02:29:21.092Z,135
2022-11-16T02:30:21.087Z,135
2022-11-16T02:31:21.133Z,135
2022-11-16T02:32:21.094Z,135
2022-11-16T02:33:21.099Z,135
2022-11-16T02:34:21.150Z,135
2022-11-16T02:35:21.114Z,135
2022-11-16T02:36:21.111Z,135
2022-11-16T02:37:21.113Z,135
2022-11-16T02:38:21.125Z,135
2022-11-16T02:39:21.128Z,135
2022-11-16T02:40:21.104Z,135
2022-11-16T02:41:21.109Z,135
2022-11-16T02:42:21.109Z,135
2022-11-16T02:43:21.119Z,135
2022-11-16T02:44:21.130Z,135
2022-11-16T02:45:21.116Z,135
2022-11-16T02:46:21.198Z,135
2022-11-16T02:47:21.163Z,135
2022-11-16T02:48:21.151Z,135
2022-11-16T02:49:21.160Z,135
2022-11-16T02:50:21.161Z,135
2022-11-16T02:51:21.144Z,135
2022-11-16T02:52:21.135Z,135
2022-11-16T02:53:21.143Z,135
2022-11-16T02:54:21.159Z,135
2022-11-16T02:55:21.133Z,135
2022-11-16T02:56:21.141Z,135
2022-11-16T02:57:21.150Z,135
2022-11-16T02:58:21.199Z,135
2022-11-16T02:59:21.279Z,135
2022-11-16T03:00:21.213Z,135
2022-11-16T03:01:21.321Z,135
2022-11-16T03:02:21.216Z,135
2022-11-16T03:03:21.241Z,135
2022-11-16T03:04:21.219Z,135
2022-11-16T03:05:21.212Z,135
2022-11-16T03:06:21.220Z,135
2022-11-16T03:07:21.302Z,135
2022-11-16T03:08:21.451Z,135
2022-11-16T03:09:21.241Z,135
2022-11-16T03:10:21.211Z,135
2022-11-16T03:11:21.208Z,135
2022-11-16T03:12:21.213Z,135
2022-11-16T03:13:21.232Z,135
2022-11-16T03:14:21.222Z,135
2022-11-16T03:15:21.211Z,135
2022-11-16T03:16:21.210Z,135
2022-11-16T03:17:21.234Z,135
2022-11-16T03:18:21.223Z,135
2022-11-16T03:19:21.276Z,135
2022-11-16T03:20:21.239Z,135
2022-11-16T03:21:21.228Z,135
2022-11-16T03:22:21.245Z,135
2022-11-16T03:23:21.247Z,135
2022-11-16T03:24:21.270Z,135
2022-11-16T03:25:21.232Z,135
2022-11-16T03:26:21.236Z,135
2022-11-16T03:27:21.274Z,135
2022-11-16T03:28:21.257Z,135
2022-11-16T03:29:21.267Z,135
2022-11-16T03:30:23.711Z,135
2022-11-16T03:31:21.267Z,135
2022-11-16T03:32:21.267Z,135
2022-11-16T03:33:21.285Z,135
2022-11-16T03:34:21.288Z,135
2022-11-16T03:35:21.302Z,135
2022-11-16T03:36:21.279Z,135
2022-11-16T03:37:21.273Z,135
2022-11-16T03:38:21.274Z,135
2022-11-16T03:39:21.310Z,135
2022-11-16T03:40:21.303Z,135
2022-11-16T03:41:21.283Z,135
2022-11-16T03:42:21.396Z,135
2022-11-16T03:43:21.345Z,135
2022-11-16T03:44:21.365Z,135
2022-11-16T03:45:21.363Z,135
2022-11-16T03:46:21.344Z,135
2022-11-16T03:47:21.454Z,135
2022-11-16T03:48:21.378Z,135
2022-11-16T03:49:21.373Z,135
2022-11-16T03:50:21.359Z,135
2022-11-16T03:51:21.389Z,135
2022-11-16T03:52:21.348Z,135
2022-11-16T03:53:21.359Z,135
2022-11-16T03:54:21.386Z,135
2022-11-16T03:55:21.363Z,135
2022-11-16T03:56:21.372Z,135
2022-11-16T03:57:21.386Z,135
2022-11-16T03:58:21.366Z,135
2022-11-16T03:59:21.375Z,135
2022-11-16T04:00:21.364Z,135
2022-11-16T04:01:21.392Z,135
2022-11-16T04:02:21.387Z,135
2022-11-16T04:03:21.364Z,135
2022-11-16T04:04:21.391Z,135
2022-11-16T04:05:21.360Z,135
2022-11-16T04:06:21.372Z,135
2022-11-16T04:07:21.476Z,135
2022-11-16T04:08:21.367Z,135
2022-11-16T04:09:21.403Z,135
2022-11-16T04:10:21.401Z,135
2022-11-16T04:11:21.469Z,135
2022-11-16T04:12:21.411Z,135
2022-11-16T04:13:21.392Z,135
2022-11-16T04:14:21.411Z,135
2022-11-16T04:15:21.396Z,135
2022-11-16T04:16:21.399Z,135
2022-11-16T04:17:21.401Z,112
2022-11-16T04:18:21.395Z,112
2022-11-16T04:19:21.415Z,112
2022-11-16T04:20:21.397Z,112
2022-11-16T04:21:21.403Z,112
2022-11-16T04:22:21.408Z,112
2022-11-16T04:23:21.441Z,112
2022-11-16T04:24:21.449Z,112
2022-11-16T04:25:21.418Z,112
2022-11-16T04:26:21.441Z,90
2022-11-16T04:27:21.420Z,90
2022-11-16T04:28:21.423Z,90
2022-11-16T04:29:21.444Z,90
2022-11-16T04:30:21.441Z,90
2022-11-16T04:31:21.425Z,90
2022-11-16T04:32:21.486Z,90
2022-11-16T04:33:21.437Z,90
2022-11-16T04:34:21.470Z,90
2022-11-16T04:35:21.443Z,90
2022-11-16T04:36:21.459Z,90
2022-11-16T04:37:21.451Z,90
2022-11-16T04:38:21.459Z,90
2022-11-16T04:39:21.513Z,90
2022-11-16T04:40:21.472Z,90
2022-11-16T04:41:21.472Z,90
2022-11-16T04:42:21.474Z,90
2022-11-16T04:43:21.470Z,90
2022-11-16T04:44:24.763Z,90
2022-11-16T04:45:21.540Z,90
2022-11-16T04:46:21.546Z,90
2022-11-16T04:47:21.545Z,90
2022-11-16T04:48:21.565Z,90
2022-11-16T04:49:21.567Z,90
2022-11-16T04:50:21.574Z,90
2022-11-16T04:51:21.583Z,90
2022-11-16T04:52:21.558Z,90
2022-11-16T04:53:21.550Z,90
2022-11-16T04:54:21.564Z,90
2022-11-16T04:55:21.564Z,90
2022-11-16T04:56:21.560Z,90
2022-11-16T04:57:21.553Z,90
2022-11-16T04:58:21.565Z,90
2022-11-16T04:59:21.562Z,90
2022-11-16T05:00:21.554Z,90
2022-11-16T05:01:21.592Z,90
2022-11-16T05:02:21.565Z,90
2022-11-16T05:03:21.563Z,90
2022-11-16T05:04:21.572Z,90
2022-11-16T05:05:21.565Z,90
2022-11-16T05:06:21.567Z,90
2022-11-16T05:07:21.645Z,90
2022-11-16T05:08:21.568Z,90
2022-11-16T05:09:21.603Z,90
2022-11-16T05:10:21.566Z,90
2022-11-16T05:11:21.584Z,90
2022-11-16T05:12:21.550Z,90
2022-11-16T05:13:21.565Z,90
2022-11-16T05:14:21.594Z,90
2022-11-16T05:15:21.593Z,90
2022-11-16T05:16:21.584Z,90
2022-11-16T05:17:21.586Z,22
2022-11-16T05:18:21.587Z,22
2022-11-16T05:19:21.593Z,22
2022-11-16T05:20:21.591Z,22
2022-11-16T05:21:21.588Z,22
2022-11-16T05:22:21.583Z,22
2022-11-16T05:23:21.591Z,68
2022-11-16T05:24:21.607Z,68
2022-11-16T05:25:21.592Z,68
2022-11-16T05:26:21.590Z,68
2022-11-16T05:27:21.631Z,68
2022-11-16T05:28:21.601Z,68
2022-11-16T05:29:21.635Z,68
2022-11-16T05:30:21.598Z,68
2022-11-16T05:31:21.604Z,68
2022-11-16T05:32:21.608Z,68
2022-11-16T05:33:21.608Z,68
2022-11-16T05:34:21.626Z,68
2022-11-16T05:35:21.682Z,68
2022-11-16T05:36:21.652Z,68
2022-11-16T05:37:21.654Z,68
2022-11-16T05:38:21.644Z,68
2022-11-16T05:39:21.689Z,68
2022-11-16T05:40:21.641Z,68
2022-11-16T05:41:21.649Z,68
2022-11-16T05:42:21.655Z,68
2022-11-16T05:43:21.671Z,68
2022-11-16T05:44:21.654Z,68
2022-11-16T05:45:21.638Z,68
2022-11-16T05:46:21.652Z,68
2022-11-16T05:47:21.666Z,68
2022-11-16T05:48:21.696Z,68
2022-11-16T05:49:21.709Z,68
2022-11-16T05:50:21.668Z,68
2022-11-16T05:51:21.667Z,68
2022-11-16T05:52:21.666Z,68
2022-11-16T05:53:21.720Z,68
2022-11-16T05:54:21.694Z,68
2022-11-16T05:55:21.722Z,68
2022-11-16T05:56:21.737Z,68
2022-11-16T05:57:21.719Z,68
2022-11-16T05:58:21.691Z,68
2022-11-16T05:59:21.745Z,68
2022-11-16T06:00:21.691Z,158
2022-11-16T06:01:21.699Z,158
2022-11-16T06:02:21.702Z,158
2022-11-16T06:03:21.746Z,158
2022-11-16T06:04:23.084Z,158
2022-11-16T06:05:21.710Z,158
2022-11-16T06:06:21.700Z,158
2022-11-16T06:07:21.769Z,158
2022-11-16T06:08:21.797Z,158
2022-11-16T06:09:21.768Z,158
2022-11-16T06:10:21.760Z,158
2022-11-16T06:11:21.777Z,158
2022-11-16T06:12:21.755Z,158
2022-11-16T06:13:21.766Z,158
2022-11-16T06:14:21.813Z,158
2022-11-16T06:15:21.788Z,158
2022-11-16T06:16:22.089Z,158
2022-11-16T06:17:21.797Z,158
2022-11-16T06:18:21.783Z,158
2022-11-16T06:19:21.796Z,158
2022-11-16T06:20:21.780Z,158
2022-11-16T06:21:21.791Z,158
2022-11-16T06:22:21.803Z,158
2022-11-16T06:23:21.772Z,158
2022-11-16T06:24:21.926Z,158
2022-11-16T06:25:21.812Z,158
2022-11-16T06:26:21.783Z,158
2022-11-16T06:27:21.786Z,158
2022-11-16T06:28:21.770Z,158
2022-11-16T06:29:21.778Z,158
2022-11-16T06:30:21.781Z,158
2022-11-16T06:31:21.773Z,158
2022-11-16T06:32:21.899Z,158
2022-11-16T06:33:21.783Z,158
2022-11-16T06:34:21.800Z,158
2022-11-16T06:35:21.810Z,158
2022-11-16T06:36:21.791Z,158
2022-11-16T06:37:21.792Z,158
2022-11-16T06:38:21.793Z,158
2022-11-16T06:39:21.793Z,158
2022-11-16T06:40:21.787Z,158
2022-11-16T06:41:21.785Z,158
2022-11-16T06:42:21.794Z,158
2022-11-16T06:43:21.806Z,158
2022-11-16T06:44:21.804Z,158
2022-11-16T06:45:21.790Z,158
2022-11-16T06:46:21.788Z,158
2022-11-16T06:47:21.791Z,158
2022-11-16T06:48:21.803Z,158
2022-11-16T06:49:21.811Z,158
2022-11-16T06:50:21.782Z,158
2022-11-16T06:51:21.806Z,158
2022-11-16T06:52:21.808Z,158
2022-11-16T06:53:26.042Z,158
2022-11-16T06:54:21.822Z,158
2022-11-16T06:55:21.906Z,158
2022-11-16T06:56:21.828Z,158
2022-11-16T06:57:21.813Z,158
2022-11-16T06:58:21.828Z,158
2022-11-16T06:59:21.828Z,158
2022-11-16T07:00:21.807Z,158
2022-11-16T07:01:21.906Z,158
2022-11-16T07:02:21.826Z,158
2022-11-16T07:03:21.816Z,158
2022-11-16T07:04:22.159Z,158
2022-11-16T07:05:21.840Z,158
2022-11-16T07:06:21.853Z,158
2022-11-16T07:07:21.861Z,158
2022-11-16T07:08:21.837Z,158
2022-11-16T07:09:21.854Z,158
2022-11-16T07:10:21.848Z,158
2022-11-16T07:11:21.852Z,158
2022-11-16T07:12:21.850Z,158
2022-11-16T07:13:21.847Z,158
2022-11-16T07:14:21.870Z,158
2022-11-16T07:15:21.866Z,158
2022-11-16T07:16:21.857Z,158
2022-11-16T07:17:21.866Z,158
2022-11-16T07:18:21.865Z,158
2022-11-16T07:19:21.879Z,158
2022-11-16T07:20:22.092Z,158
2022-11-16T07:21:21.894Z,158
2022-11-16T07:22:21.882Z,158
2022-11-16T07:23:21.896Z,158
2022-11-16T07:24:21.903Z,158
2022-11-16T07:25:21.889Z,158
2022-11-16T07:26:21.891Z,158
2022-11-16T07:27:21.893Z,158
2022-11-16T07:28:21.894Z,158
2022-11-16T07:29:21.916Z,158
2022-11-16T07:30:21.887Z,158
2022-11-16T07:31:22.089Z,158
2022-11-16T07:32:21.907Z,158
2022-11-16T07:33:21.903Z,158
2022-11-16T07:34:21.923Z,158
2022-11-16T07:35:21.894Z,158
2022-11-16T07:36:21.906Z,158
2022-11-16T07:37:21.892Z,158
2022-11-16T07:38:21.903Z,158
2022-11-16T07:39:21.949Z,158
2022-11-16T07:40:21.901Z,158
2022-11-16T07:41:21.929Z,158
2022-11-16T07:42:21.919Z,158
2022-11-16T07:43:21.915Z,158
2022-11-16T07:44:21.951Z,158
2022-11-16T07:45:21.918Z,158
2022-11-16T07:46:45.700Z,158
2022-11-16T07:47:21.925Z,158
2022-11-16T07:48:21.929Z,158
2022-11-16T07:49:21.956Z,158
2022-11-16T07:50:21.930Z,158
2022-11-16T07:51:21.924Z,158
2022-11-16T07:52:22.048Z,158
2022-11-16T07:53:21.927Z,158
2022-11-16T07:54:21.943Z,158
2022-11-16T07:55:21.935Z,158
2022-11-16T07:56:21.938Z,158
2022-11-16T07:57:21.980Z,158
2022-11-16T07:58:21.956Z,158
2022-11-16T07:59:21.967Z,158
2022-11-16T08:00:21.957Z,158
2022-11-16T08:01:21.999Z,158
2022-11-16T08:02:21.969Z,158
2022-11-16T08:03:24.724Z,158
2022-11-16T08:04:21.976Z,158
2022-11-16T08:05:21.960Z,158
2022-11-16T08:06:21.957Z,158
2022-11-16T08:07:21.992Z,158
2022-11-16T08:08:22.081Z,158
2022-11-16T08:09:21.993Z,158
2022-11-16T08:10:22.036Z,158
2022-11-16T08:11:21.962Z,158
2022-11-16T08:12:21.966Z,158
2022-11-16T08:13:21.963Z,158
2022-11-16T08:14:21.996Z,158
2022-11-16T08:15:22.000Z,158
2022-11-16T08:16:21.969Z,158
2022-11-16T08:17:21.988Z,158
2022-11-16T08:18:21.974Z,158
2022-11-16T08:19:21.996Z,158
2022-11-16T08:20:21.979Z,158
2022-11-16T08:21:21.990Z,158
2022-11-16T08:22:21.987Z,202
2022-11-16T08:23:21.983Z,248
2022-11-16T08:24:22.023Z,180
2022-11-16T08:25:21.993Z,180
2022-11-16T08:26:22.062Z,180
2022-11-16T08:27:22.001Z,180
2022-11-16T08:28:22.007Z,180
2022-11-16T08:29:22.006Z,135
2022-11-16T08:30:22.010Z,158
2022-11-16T08:31:22.012Z,158
2022-11-16T08:32:21.999Z,180
2022-11-16T08:33:22.019Z,158
2022-11-16T08:34:22.044Z,158
2022-11-16T08:35:22.021Z,158
2022-11-16T08:36:22.037Z,158
2022-11-16T08:37:22.020Z,158
2022-11-16T08:38:22.030Z,158
2022-11-16T08:39:22.038Z,158
2022-11-16T08:40:22.142Z,158
2022-11-16T08:41:22.055Z,225
2022-11-16T08:42:22.041Z,158
2022-11-16T08:43:22.043Z,202
2022-11-16T08:44:22.048Z,202
2022-11-16T08:45:22.055Z,180
2022-11-16T08:46:22.049Z,180
2022-11-16T08:47:22.064Z,180
2022-11-16T08:48:22.056Z,180
2022-11-16T08:49:22.080Z,180
2022-11-16T08:50:22.074Z,180
2022-11-16T08:51:22.069Z,180
2022-11-16T08:52:22.088Z,180
2022-11-16T08:53:22.077Z,180
2022-11-16T08:54:22.083Z,180
2022-11-16T08:55:22.080Z,180
2022-11-16T08:56:22.210Z,158
2022-11-16T08:57:22.067Z,270
2022-11-16T08:58:22.084Z,270
2022-11-16T08:59:22.106Z,270
2022-11-16T09:00:22.237Z,270
2022-11-16T09:01:22.139Z,270
2022-11-16T09:02:22.099Z,158
2022-11-16T09:03:22.124Z,180
2022-11-16T09:04:22.128Z,158
2022-11-16T09:05:22.117Z,158
2022-11-16T09:06:22.105Z,158
2022-11-16T09:07:22.171Z,158
2022-11-16T09:08:22.111Z,180
2022-11-16T09:09:22.132Z,180
2022-11-16T09:10:22.122Z,158
2022-11-16T09:11:22.144Z,158
2022-11-16T09:12:22.236Z,180
2022-11-16T09:13:22.128Z,180
2022-11-16T09:14:22.164Z,180
2022-11-16T09:15:22.138Z,202
2022-11-16T09:16:22.156Z,202
2022-11-16T09:17:23.338Z,158
2022-11-16T09:18:22.126Z,202
2022-11-16T09:19:22.141Z,158
2022-11-16T09:20:22.143Z,158
2022-11-16T09:21:22.177Z,158
2022-11-16T09:22:22.150Z,135
2022-11-16T09:23:25.207Z,180
2022-11-16T09:24:22.173Z,158
2022-11-16T09:25:22.141Z,225
2022-11-16T09:26:22.139Z,270
2022-11-16T09:27:22.146Z,180
2022-11-16T09:28:22.168Z,158
2022-11-16T09:29:22.189Z,158
2022-11-16T09:30:22.172Z,248
2022-11-16T09:31:23.644Z,158
2022-11-16T09:32:22.165Z,158
2022-11-16T09:33:22.188Z,158
2022-11-16T09:34:22.197Z,158
2022-11-16T09:35:22.309Z,158
2022-11-16T09:36:22.177Z,158
2022-11-16T09:37:22.205Z,202
2022-11-16T09:38:34.822Z,202
2022-11-16T09:39:31.306Z,202
2022-11-16T09:40:22.178Z,202
2022-11-16T09:41:22.176Z,202
2022-11-16T09:42:22.172Z,225
2022-11-16T09:43:22.182Z,202
2022-11-16T09:44:22.320Z,158
2022-11-16T09:45:22.194Z,158
2022-11-16T09:46:22.172Z,158
2022-11-16T09:47:22.177Z,158
2022-11-16T09:48:22.191Z,158
2022-11-16T09:49:22.222Z,292
2022-11-16T09:50:22.192Z,292
2022-11-16T09:51:22.185Z,292
2022-11-16T09:52:22.221Z,292
2022-11-16T09:53:22.207Z,292
2022-11-16T09:54:22.225Z,292
2022-11-16T09:55:22.240Z,292
2022-11-16T09:56:22.692Z,292
2022-11-16T09:57:22.208Z,158
2022-11-16T09:58:22.234Z,135
2022-11-16T09:59:22.251Z,158
2022-11-16T10:00:22.272Z,158
2022-11-16T10:01:22.307Z,158
2022-11-16T10:02:22.245Z,158
2022-11-16T10:03:22.253Z,158
2022-11-16T10:04:22.277Z,158
2022-11-16T10:05:22.262Z,180
2022-11-16T10:06:22.257Z,180
2022-11-16T10:07:22.325Z,180
2022-11-16T10:08:22.252Z,180
2022-11-16T10:09:22.266Z,180
2022-11-16T10:10:22.247Z,180
2022-11-16T10:11:22.251Z,180
2022-11-16T10:12:22.280Z,158
2022-11-16T10:13:22.250Z,180
2022-11-16T10:14:22.259Z,180
2022-11-16T10:15:22.263Z,158
2022-11-16T10:16:22.294Z,180
2022-11-16T10:17:22.262Z,202
2022-11-16T10:18:22.257Z,180
2022-11-16T10:19:22.283Z,158
2022-11-16T10:20:25.062Z,180
2022-11-16T10:21:22.506Z,248
2022-11-16T10:22:22.272Z,180
2022-11-16T10:23:22.278Z,158
2022-11-16T10:24:22.342Z,180
2022-11-16T10:25:22.336Z,180
2022-11-16T10:26:22.319Z,180
2022-11-16T10:27:22.413Z,225
2022-11-16T10:28:22.312Z,202
2022-11-16T10:29:22.345Z,270
2022-11-16T10:30:22.325Z,202
2022-11-16T10:31:22.305Z,180
2022-11-16T10:32:22.425Z,158
2022-11-16T10:33:22.309Z,180
2022-11-16T10:34:22.323Z,270
2022-11-16T10:35:22.313Z,270
2022-11-16T10:36:22.306Z,202
2022-11-16T10:37:22.304Z,180
2022-11-16T10:38:22.310Z,270
2022-11-16T10:39:22.320Z,248
2022-11-16T10:40:22.321Z,270
2022-11-16T10:41:22.314Z,270
2022-11-16T10:42:22.374Z,248
2022-11-16T10:43:22.325Z,180
2022-11-16T10:44:22.340Z,180
2022-11-16T10:45:22.325Z,158
2022-11-16T10:46:22.335Z,180
2022-11-16T10:47:22.359Z,180
2022-11-16T10:48:22.458Z,180
2022-11-16T10:49:22.376Z,292
2022-11-16T10:50:22.360Z,270
2022-11-16T10:51:22.362Z,270
2022-11-16T10:52:22.355Z,338
2022-11-16T10:53:22.358Z,292
2022-11-16T10:54:22.385Z,270
2022-11-16T10:55:22.374Z,270
2022-11-16T10:56:22.347Z,292
2022-11-16T10:57:22.359Z,292
2022-11-16T10:58:22.370Z,270
2022-11-16T10:59:22.384Z,270
2022-11-16T11:00:22.482Z,158
2022-11-16T11:01:22.434Z,180
2022-11-16T11:02:22.369Z,180
2022-11-16T11:03:22.382Z,180
2022-11-16T11:04:22.444Z,180
2022-11-16T11:05:22.362Z,248
2022-11-16T11:06:22.385Z,270
2022-11-16T11:07:22.413Z,248
2022-11-16T11:08:22.394Z,158
2022-11-16T11:09:22.426Z,158
2022-11-16T11:10:22.425Z,158
2022-11-16T11:11:22.397Z,180
2022-11-16T11:12:22.455Z,180
2022-11-16T11:13:22.408Z,180
2022-11-16T11:14:22.416Z,180
2022-11-16T11:15:25.756Z,225
2022-11-16T11:16:22.411Z,202
2022-11-16T11:17:22.396Z,158
2022-11-16T11:18:22.402Z,158
2022-11-16T11:19:22.434Z,158
2022-11-16T11:20:22.444Z,158
2022-11-16T11:21:22.440Z,225
2022-11-16T11:22:22.422Z,202
2022-11-16T11:23:22.429Z,270
2022-11-16T11:24:44.253Z,202
2022-11-16T11:25:22.431Z,225
2022-11-16T11:26:22.502Z,225
2022-11-16T11:27:22.460Z,225
2022-11-16T11:28:22.462Z,225
2022-11-16T11:29:22.483Z,225
2022-11-16T11:30:22.452Z,202
2022-11-16T11:31:22.543Z,202
2022-11-16T11:32:24.360Z,202
2022-11-16T11:33:22.458Z,180
2022-11-16T11:34:22.470Z,225
2022-11-16T11:35:22.459Z,225
2022-11-16T11:36:22.577Z,225
2022-11-16T11:37:22.462Z,225
2022-11-16T11:38:22.500Z,225
2022-11-16T11:39:22.475Z,225
2022-11-16T11:40:22.489Z,225
2022-11-16T11:41:22.469Z,292
2022-11-16T11:42:22.486Z,0
2022-11-16T11:43:22.464Z,292
2022-11-16T11:44:22.481Z,45
2022-11-16T11:45:22.463Z,338
2022-11-16T11:46:22.605Z,292
2022-11-16T11:47:56.009Z,292
2022-11-16T11:48:22.469Z,292
2022-11-16T11:49:22.509Z,292
2022-11-16T11:50:22.480Z,292
2022-11-16T11:51:22.476Z,292
2022-11-16T11:52:22.549Z,292
2022-11-16T11:53:22.506Z,292
2022-11-16T11:54:22.532Z,315
2022-11-16T11:55:22.514Z,292
2022-11-16T11:56:22.502Z,292
2022-11-16T11:57:22.512Z,292
2022-11-16T11:58:22.499Z,292
2022-11-16T11:59:22.527Z,292
2022-11-16T12:00:22.508Z,292
2022-11-16T12:01:25.422Z,292
2022-11-16T12:02:22.516Z,292
2022-11-16T12:03:22.548Z,292
2022-11-16T12:04:22.558Z,292
2022-11-16T12:05:22.531Z,292
2022-11-16T12:06:22.531Z,292
2022-11-16T12:07:22.592Z,292
2022-11-16T12:08:22.588Z,292
2022-11-16T12:09:22.578Z,292
2022-11-16T12:10:22.542Z,292
2022-11-16T12:11:22.553Z,270
2022-11-16T12:12:22.564Z,292
2022-11-16T12:13:22.567Z,338
2022-11-16T12:14:22.557Z,292
2022-11-16T12:15:22.561Z,292
2022-11-16T12:16:22.550Z,270
2022-11-16T12:17:22.656Z,270
2022-11-16T12:18:22.557Z,270
2022-11-16T12:19:22.574Z,292
2022-11-16T12:20:22.575Z,270
2022-11-16T12:21:22.620Z,270
2022-11-16T12:22:22.581Z,270
2022-11-16T12:23:22.584Z,270
2022-11-16T12:24:22.618Z,270
2022-11-16T12:25:22.630Z,270
2022-11-16T12:26:22.605Z,270
2022-11-16T12:27:22.598Z,248
2022-11-16T12:28:22.601Z,225
2022-11-16T12:29:22.610Z,225
2022-11-16T12:30:22.601Z,225
2022-11-16T12:31:22.601Z,225
2022-11-16T12:32:22.756Z,225
2022-11-16T12:33:22.604Z,225
2022-11-16T12:34:22.636Z,225
2022-11-16T12:35:22.621Z,225
2022-11-16T12:36:22.630Z,225
2022-11-16T12:37:22.728Z,225
2022-11-16T12:38:26.171Z,225
2022-11-16T12:39:22.631Z,225
2022-11-16T12:40:22.744Z,225
2022-11-16T12:41:22.672Z,225
2022-11-16T12:42:22.636Z,225
2022-11-16T12:43:22.644Z,225
2022-11-16T12:44:22.660Z,225
2022-11-16T12:45:24.387Z,225
2022-11-16T12:46:22.645Z,225
2022-11-16T12:47:22.762Z,225
2022-11-16T12:48:22.648Z,225
2022-11-16T12:49:22.657Z,225
2022-11-16T12:50:22.643Z,270
2022-11-16T12:51:25.255Z,270
2022-11-16T12:52:22.677Z,270
2022-11-16T12:53:22.680Z,270
2022-11-16T12:54:22.692Z,270
2022-11-16T12:55:27.027Z,292
2022-11-16T12:56:22.772Z,292
2022-11-16T12:57:22.669Z,292
2022-11-16T12:58:22.669Z,248
2022-11-16T12:59:22.693Z,292
2022-11-16T13:00:22.677Z,292
2022-11-16T13:01:22.740Z,270
2022-11-16T13:02:22.674Z,270
2022-11-16T13:03:22.698Z,270
2022-11-16T13:04:22.705Z,315
2022-11-16T13:05:22.724Z,315
2022-11-16T13:06:22.719Z,315
2022-11-16T13:07:22.823Z,315
2022-11-16T13:08:22.708Z,315
2022-11-16T13:09:22.721Z,315
2022-11-16T13:10:22.785Z,315
2022-11-16T13:11:22.775Z,292
2022-11-16T13:12:22.918Z,292
2022-11-16T13:13:35.751Z,292
2022-11-16T13:14:22.790Z,248
2022-11-16T13:15:22.789Z,202
2022-11-16T13:16:22.778Z,225
2022-11-16T13:17:22.789Z,225
2022-11-16T13:18:22.775Z,158
2022-11-16T13:19:22.805Z,135
2022-11-16T13:20:22.781Z,180
2022-11-16T13:21:22.788Z,180
2022-11-16T13:22:22.939Z,180
2022-11-16T13:23:22.783Z,180
2022-11-16T13:24:22.775Z,180
2022-11-16T13:25:22.768Z,180
2022-11-16T13:26:22.795Z,180
2022-11-16T13:27:22.781Z,180
2022-11-16T13:28:22.791Z,180
2022-11-16T13:29:22.794Z,202
2022-11-16T13:30:22.780Z,180
2022-11-16T13:31:22.775Z,180
2022-11-16T13:32:22.795Z,180
2022-11-16T13:33:22.774Z,292
2022-11-16T13:34:22.801Z,292
2022-11-16T13:35:22.782Z,180
2022-11-16T13:36:22.771Z,180
2022-11-16T13:37:22.776Z,180
2022-11-16T13:38:22.786Z,158
2022-11-16T13:39:23.199Z,158
2022-11-16T13:40:22.785Z,158
2022-11-16T13:41:23.002Z,180
2022-11-16T13:42:22.781Z,158
2022-11-16T13:43:22.786Z,158
2022-11-16T13:44:22.838Z,158
2022-11-16T13:45:22.783Z,180
2022-11-16T13:46:53.964Z,180
2022-11-16T13:47:22.808Z,180
2022-11-16T13:48:23.003Z,180
2022-11-16T13:49:22.808Z,180